Time;durP1;ratioP1;P1;durP2;ratioP2;P2;SDS_P1;SDS_P2;PMS_P1;PMS_P2;Temp;Humidity;BMP_temperature;BMP_pressure;BME280_temperature;BME280_humidity;BME280_pressure;Samples;Min_cycle;Max_cycle;Signal;HPM_P1;HPM_P2
2023/12/10 00:00:10;;;;;;;5.80;4.90;;;15.70;71.00;;;;;;344215;28;1013;-57
2023/12/10 00:00:21;;;;;;;5.57;4.90;;;15.70;71.10;;;;;;344272;28;1059;-58
2023/12/10 00:00:32;;;;;;;5.20;4.57;;;15.70;71.10;;;;;;344217;28;1022;-56
2023/12/10 00:00:42;;;;;;;5.78;4.55;;;15.70;71.10;;;;;;344290;28;830;-56
2023/12/10 00:00:53;;;;;;;6.03;4.47;;;15.70;71.00;;;;;;344135;28;1910;-57
2023/12/10 00:01:05;;;;;;;6.97;4.60;;;15.70;71.00;;;;;;344223;28;1820;-57
2023/12/10 00:01:15;;;;;;;7.55;4.82;;;15.70;71.00;;;;;;344303;28;845;-55
2023/12/10 00:01:26;;;;;;;7.87;4.90;;;15.70;71.00;;;;;;344147;28;1255;-56
2023/12/10 00:01:37;;;;;;;6.68;4.85;;;15.70;71.00;;;;;;344175;28;1056;-56
2023/12/10 00:01:48;;;;;;;5.68;4.63;;;15.70;71.00;;;;;;344205;28;973;-56
2023/12/10 00:01:59;;;;;;;5.70;4.63;;;15.70;71.00;;;;;;344311;28;869;-56
2023/12/10 00:02:10;;;;;;;7.05;4.82;;;15.70;71.10;;;;;;344189;28;1152;-57
2023/12/10 00:02:21;;;;;;;8.23;5.30;;;15.70;71.10;;;;;;344263;28;850;-56
2023/12/10 00:02:32;;;;;;;7.72;5.13;;;15.70;71.10;;;;;;344282;28;1023;-56
2023/12/10 00:02:43;;;;;;;7.35;5.20;;;15.70;71.10;;;;;;344198;28;1007;-57
2023/12/10 00:02:54;;;;;;;6.72;4.80;;;15.70;71.10;;;;;;344287;28;873;-56
2023/12/10 00:03:04;;;;;;;6.93;5.03;;;15.70;71.10;;;;;;344248;28;1924;-57
2023/12/10 00:03:15;;;;;;;7.10;5.10;;;15.70;71.00;;;;;;344225;28;915;-56
2023/12/10 00:03:26;;;;;;;7.00;5.18;;;15.70;71.00;;;;;;344296;28;1285;-57
2023/12/10 00:03:37;;;;;;;9.10;5.15;;;15.70;71.00;;;;;;344258;28;1020;-56
2023/12/10 00:03:48;;;;;;;10.10;5.07;;;15.70;70.90;;;;;;344160;28;1077;-56
2023/12/10 00:03:58;;;;;;;9.40;5.22;;;15.70;70.90;;;;;;344206;28;992;-56
2023/12/10 00:04:09;;;;;;;7.13;5.03;;;15.70;71.00;;;;;;344282;28;885;-56
2023/12/10 00:04:20;;;;;;;5.82;4.90;;;15.70;70.90;;;;;;344308;28;842;-56
2023/12/10 00:04:31;;;;;;;6.07;4.95;;;15.70;71.00;;;;;;344255;28;1009;-57
2023/12/10 00:04:42;;;;;;;6.83;5.00;;;15.70;71.00;;;;;;344180;28;1014;-56
2023/12/10 00:04:53;;;;;;;6.72;5.00;;;15.70;71.00;;;;;;344225;28;1051;-57
2023/12/10 00:05:04;;;;;;;7.10;5.00;;;15.70;71.00;;;;;;344247;28;1063;-57
2023/12/10 00:05:15;;;;;;;6.70;4.88;;;15.70;71.00;;;;;;344267;28;901;-56
2023/12/10 00:05:26;;;;;;;7.25;5.03;;;15.70;71.00;;;;;;344278;28;854;-57
2023/12/10 00:05:37;;;;;;;6.78;5.30;;;15.70;71.00;;;;;;344124;28;1139;-55
2023/12/10 00:05:47;;;;;;;6.82;5.32;;;15.70;71.00;;;;;;344204;28;1012;-56
2023/12/10 00:05:58;;;;;;;6.53;5.07;;;15.70;71.00;;;;;;344291;28;976;-57
2023/12/10 00:06:09;;;;;;;6.38;4.90;;;15.70;71.00;;;;;;344182;28;1087;-58
2023/12/10 00:06:20;;;;;;;6.50;5.25;;;15.70;71.00;;;;;;344236;28;1036;-56
2023/12/10 00:06:30;;;;;;;5.95;5.20;;;15.70;71.00;;;;;;344138;28;1019;-56
2023/12/10 00:06:41;;;;;;;5.93;4.90;;;15.70;71.00;;;;;;344197;28;1222;-57
2023/12/10 00:06:52;;;;;;;6.47;4.80;;;15.70;71.00;;;;;;344287;28;809;-57
2023/12/10 00:07:03;;;;;;;6.90;5.15;;;15.70;71.00;;;;;;344216;28;1083;-57
2023/12/10 00:07:13;;;;;;;6.90;5.38;;;15.70;71.00;;;;;;344250;28;1028;-57
2023/12/10 00:07:24;;;;;;;6.57;5.20;;;15.70;71.00;;;;;;344170;28;943;-57
2023/12/10 00:07:35;;;;;;;6.13;5.00;;;15.70;71.00;;;;;;344287;28;1071;-57
2023/12/10 00:07:46;;;;;;;6.07;4.97;;;15.70;71.00;;;;;;344257;28;1080;-57
2023/12/10 00:07:56;;;;;;;6.05;5.00;;;15.70;71.00;;;;;;344216;28;1052;-57
2023/12/10 00:08:07;;;;;;;6.30;5.10;;;15.70;71.00;;;;;;344301;28;1084;-55
2023/12/10 00:08:20;;;;;;;6.53;5.20;;;15.70;71.00;;;;;;344146;28;1948;-58
2023/12/10 00:08:30;;;;;;;6.38;5.13;;;15.70;71.00;;;;;;344242;28;1698;-57
2023/12/10 00:08:41;;;;;;;6.10;5.13;;;15.70;71.00;;;;;;344285;28;885;-57
2023/12/10 00:08:52;;;;;;;5.78;5.00;;;15.70;71.00;;;;;;344223;28;1036;-56
2023/12/10 00:09:03;;;;;;;6.00;5.40;;;15.70;71.00;;;;;;344299;28;968;-56
2023/12/10 00:09:14;;;;;;;7.00;5.70;;;15.70;71.00;;;;;;344237;28;1006;-56
2023/12/10 00:09:24;;;;;;;7.60;5.63;;;15.70;71.00;;;;;;344289;28;857;-57
2023/12/10 00:09:35;;;;;;;7.68;5.43;;;15.70;71.00;;;;;;344216;28;1309;-57
2023/12/10 00:09:46;;;;;;;6.75;5.05;;;15.70;71.00;;;;;;344264;28;1005;-56
2023/12/10 00:09:57;;;;;;;6.97;5.30;;;15.70;71.00;;;;;;344224;28;1044;-57
2023/12/10 00:10:08;;;;;;;7.03;5.50;;;15.70;71.00;;;;;;344166;28;1132;-57
2023/12/10 00:10:18;;;;;;;7.55;5.80;;;15.70;71.00;;;;;;344193;28;1159;-56
2023/12/10 00:10:29;;;;;;;8.60;5.83;;;15.70;71.00;;;;;;344210;28;1087;-58
2023/12/10 00:10:40;;;;;;;8.52;5.90;;;15.70;71.10;;;;;;344222;28;882;-56
2023/12/10 00:10:51;;;;;;;7.32;5.57;;;15.70;71.00;;;;;;344199;28;1088;-57
2023/12/10 00:11:02;;;;;;;6.47;5.28;;;15.70;71.00;;;;;;344158;28;993;-56
2023/12/10 00:11:13;;;;;;;6.38;5.13;;;15.70;71.00;;;;;;344291;28;995;-56
2023/12/10 00:11:23;;;;;;;6.07;5.05;;;15.70;71.00;;;;;;344274;28;857;-57
2023/12/10 00:11:34;;;;;;;6.28;4.90;;;15.70;70.90;;;;;;344204;28;1040;-56
2023/12/10 00:11:45;;;;;;;7.03;4.97;;;15.70;70.90;;;;;;344222;28;981;-57
2023/12/10 00:11:55;;;;;;;9.30;5.00;;;15.70;70.90;;;;;;344112;28;1233;-55
2023/12/10 00:12:07;;;;;;;9.15;4.95;;;15.70;70.90;;;;;;344234;28;1135;-57
2023/12/10 00:12:17;;;;;;;8.63;4.85;;;15.70;70.90;;;;;;344244;28;992;-57
2023/12/10 00:12:28;;;;;;;7.05;4.93;;;15.70;70.90;;;;;;344294;28;834;-56
2023/12/10 00:12:40;;;;;;;6.78;4.97;;;15.70;70.90;;;;;;344252;28;1029;-57
2023/12/10 00:12:50;;;;;;;6.82;4.90;;;15.70;70.90;;;;;;344170;28;968;-56
2023/12/10 00:13:01;;;;;;;6.53;4.60;;;15.70;70.90;;;;;;344274;28;1059;-56
2023/12/10 00:13:12;;;;;;;5.72;4.40;;;15.70;70.90;;;;;;344219;28;1020;-57
2023/12/10 00:13:23;;;;;;;4.90;4.32;;;15.70;70.80;;;;;;344238;28;1035;-57
2023/12/10 00:13:33;;;;;;;5.67;4.57;;;15.70;70.90;;;;;;344228;28;1251;-59
2023/12/10 00:13:44;;;;;;;7.00;4.68;;;15.70;70.80;;;;;;344179;28;1056;-58
2023/12/10 00:13:55;;;;;;;6.93;4.53;;;15.70;70.80;;;;;;344213;28;1202;-59
2023/12/10 00:14:06;;;;;;;6.97;4.50;;;15.70;70.90;;;;;;344219;28;806;-57
2023/12/10 00:14:16;;;;;;;6.53;4.20;;;15.70;70.90;;;;;;344263;28;822;-57
2023/12/10 00:14:27;;;;;;;6.47;4.20;;;15.70;70.80;;;;;;344266;28;872;-57
2023/12/10 00:14:38;;;;;;;6.00;4.40;;;15.70;70.70;;;;;;344242;28;904;-56
2023/12/10 00:14:53;;;;;;;5.50;4.60;;;15.70;70.70;;;;;;344280;28;1135;-56
2023/12/10 00:15:05;;;;;;;6.03;4.32;;;15.70;70.70;;;;;;344257;28;1111;-56
2023/12/10 00:15:16;;;;;;;6.30;4.38;;;15.70;70.70;;;;;;344192;28;1121;-56
2023/12/10 00:15:26;;;;;;;5.90;4.53;;;15.70;70.70;;;;;;344214;28;1067;-57
2023/12/10 00:15:37;;;;;;;6.07;4.90;;;15.70;70.80;;;;;;344202;28;1091;-56
2023/12/10 00:15:48;;;;;;;5.88;4.78;;;15.70;70.80;;;;;;344153;28;1017;-57
2023/12/10 00:15:59;;;;;;;6.30;4.95;;;15.70;70.80;;;;;;344253;28;1143;-56
2023/12/10 00:16:09;;;;;;;6.80;4.97;;;15.70;70.80;;;;;;344269;28;1024;-58
2023/12/10 00:16:20;;;;;;;6.65;5.13;;;15.70;70.80;;;;;;344194;28;881;-57
2023/12/10 00:16:31;;;;;;;6.07;4.90;;;15.70;70.80;;;;;;344260;28;834;-56
2023/12/10 00:16:42;;;;;;;6.30;4.93;;;15.70;70.80;;;;;;344233;28;1915;-56
2023/12/10 00:16:53;;;;;;;6.70;4.80;;;15.70;70.80;;;;;;344157;28;982;-57
2023/12/10 00:17:04;;;;;;;6.55;4.80;;;15.70;70.80;;;;;;344233;28;1163;-57
2023/12/10 00:17:15;;;;;;;6.35;4.65;;;15.70;70.80;;;;;;344236;28;984;-57
2023/12/10 00:17:26;;;;;;;6.05;4.70;;;15.70;70.80;;;;;;344152;28;1596;-57
2023/12/10 00:17:36;;;;;;;7.35;4.70;;;15.70;70.80;;;;;;344264;28;1167;-57
2023/12/10 00:17:47;;;;;;;7.03;4.45;;;15.70;70.80;;;;;;344242;28;1083;-57
2023/12/10 00:17:58;;;;;;;6.65;4.20;;;15.70;70.80;;;;;;344177;28;1851;-57
2023/12/10 00:18:09;;;;;;;6.35;4.30;;;15.70;70.80;;;;;;344224;28;1016;-57
2023/12/10 00:18:20;;;;;;;6.18;4.45;;;15.70;70.80;;;;;;344248;28;1202;-57
2023/12/10 00:18:30;;;;;;;5.83;4.50;;;15.70;70.80;;;;;;344173;28;1087;-57
2023/12/10 00:18:41;;;;;;;6.00;4.40;;;15.70;70.80;;;;;;344251;28;1048;-57
2023/12/10 00:18:52;;;;;;;6.05;4.32;;;15.70;70.80;;;;;;344151;28;1432;-57
2023/12/10 00:19:03;;;;;;;6.60;4.50;;;15.70;70.80;;;;;;344143;28;1179;-57
2023/12/10 00:19:13;;;;;;;7.00;4.63;;;15.70;70.90;;;;;;344229;28;996;-56
2023/12/10 00:19:24;;;;;;;7.30;4.80;;;15.70;70.90;;;;;;344183;28;1048;-57
2023/12/10 00:19:35;;;;;;;6.95;4.90;;;15.70;70.90;;;;;;344009;28;1076;-57
2023/12/10 00:19:46;;;;;;;6.38;5.05;;;15.70;70.90;;;;;;344049;28;1039;-57
2023/12/10 00:19:56;;;;;;;6.43;5.13;;;15.70;70.90;;;;;;344095;28;1218;-56
2023/12/10 00:20:08;;;;;;;7.47;5.10;;;15.70;70.90;;;;;;344137;28;1134;-56
2023/12/10 00:20:18;;;;;;;8.10;5.10;;;15.70;70.90;;;;;;344118;28;1011;-58
2023/12/10 00:20:29;;;;;;;8.45;4.97;;;15.70;70.90;;;;;;344123;28;1141;-57
2023/12/10 00:20:40;;;;;;;7.70;4.97;;;15.70;70.90;;;;;;344061;28;972;-56
2023/12/10 00:20:51;;;;;;;7.43;4.95;;;15.70;70.90;;;;;;344099;28;1016;-56
2023/12/10 00:21:02;;;;;;;8.05;5.00;;;15.70;70.90;;;;;;344202;28;1096;-56
2023/12/10 00:21:13;;;;;;;7.57;4.63;;;15.70;70.90;;;;;;344053;28;996;-56
2023/12/10 00:21:24;;;;;;;5.93;4.63;;;15.70;70.90;;;;;;344173;28;987;-55
2023/12/10 00:21:35;;;;;;;5.65;4.80;;;15.70;70.90;;;;;;344148;28;861;-56
2023/12/10 00:21:47;;;;;;;6.35;5.05;;;15.70;70.90;;;;;;344021;28;1185;-57
2023/12/10 00:21:57;;;;;;;6.38;5.00;;;15.70;70.80;;;;;;344107;28;1482;-56
2023/12/10 00:22:08;;;;;;;6.72;4.90;;;15.70;70.90;;;;;;344144;28;1073;-56
2023/12/10 00:22:19;;;;;;;7.72;5.25;;;15.70;70.80;;;;;;344147;28;1131;-57
2023/12/10 00:22:30;;;;;;;7.32;5.22;;;15.70;70.80;;;;;;344230;28;1087;-56
2023/12/10 00:22:40;;;;;;;6.90;5.33;;;15.70;70.90;;;;;;344261;28;1833;-58
2023/12/10 00:22:51;;;;;;;6.97;5.28;;;15.70;70.90;;;;;;344156;28;972;-56
2023/12/10 00:23:02;;;;;;;7.45;5.13;;;15.70;70.90;;;;;;344291;28;836;-57
2023/12/10 00:23:13;;;;;;;7.10;5.00;;;15.70;70.90;;;;;;344208;28;1472;-56
2023/12/10 00:23:24;;;;;;;6.40;4.95;;;15.70;70.90;;;;;;344148;28;1143;-55
2023/12/10 00:23:35;;;;;;;7.15;4.97;;;15.70;70.80;;;;;;344215;28;960;-57
2023/12/10 00:23:45;;;;;;;6.90;4.80;;;15.70;70.80;;;;;;344208;28;1079;-56
2023/12/10 00:23:56;;;;;;;6.90;4.70;;;15.70;70.80;;;;;;344316;28;814;-57
2023/12/10 00:24:07;;;;;;;6.47;4.88;;;15.70;70.80;;;;;;344196;28;909;-56
2023/12/10 00:24:18;;;;;;;7.03;4.72;;;15.70;70.90;;;;;;344240;28;803;-57
2023/12/10 00:24:29;;;;;;;6.43;4.68;;;15.70;70.90;;;;;;344243;28;936;-57
2023/12/10 00:24:42;;;;;;;7.05;4.90;;;15.70;70.90;;;;;;344214;28;1969;-57
2023/12/10 00:24:53;;;;;;;6.32;4.90;;;15.70;70.90;;;;;;344151;28;1062;-57
2023/12/10 00:25:04;;;;;;;6.93;4.97;;;15.70;71.00;;;;;;344256;28;969;-57
2023/12/10 00:25:15;;;;;;;6.43;4.82;;;15.70;70.90;;;;;;344211;28;1267;-57
2023/12/10 00:25:26;;;;;;;7.75;5.05;;;15.70;70.90;;;;;;344234;28;1051;-57
2023/12/10 00:25:39;;;;;;;7.45;5.03;;;15.70;70.90;;;;;;344120;28;1793;-56
2023/12/10 00:25:50;;;;;;;7.70;5.22;;;15.70;70.90;;;;;;344198;28;992;-57
2023/12/10 00:26:01;;;;;;;7.30;5.10;;;15.70;70.90;;;;;;344206;28;833;-55
2023/12/10 00:26:11;;;;;;;6.63;5.13;;;15.70;70.90;;;;;;344205;28;1103;-57
2023/12/10 00:26:22;;;;;;;6.97;5.10;;;15.70;70.90;;;;;;344056;28;1091;-57
2023/12/10 00:26:33;;;;;;;6.95;5.07;;;15.70;70.90;;;;;;344194;28;1091;-57
2023/12/10 00:26:45;;;;;;;6.93;5.00;;;15.70;70.90;;;;;;344220;28;861;-57
2023/12/10 00:26:56;;;;;;;6.85;5.25;;;15.70;70.90;;;;;;344227;28;909;-56
2023/12/10 00:27:06;;;;;;;6.70;5.37;;;15.70;71.00;;;;;;344020;28;1050;-56
2023/12/10 00:27:17;;;;;;;6.63;5.25;;;15.70;71.00;;;;;;344167;28;1095;-57
2023/12/10 00:27:28;;;;;;;7.97;5.35;;;15.70;70.90;;;;;;344163;28;1070;-56
2023/12/10 00:27:39;;;;;;;8.05;5.20;;;15.70;70.90;;;;;;344202;28;822;-57
2023/12/10 00:27:49;;;;;;;7.43;5.20;;;15.70;70.90;;;;;;344160;28;980;-56
2023/12/10 00:28:00;;;;;;;6.93;5.20;;;15.70;70.90;;;;;;344188;28;953;-56
2023/12/10 00:28:11;;;;;;;6.78;5.18;;;15.70;70.90;;;;;;344218;28;1924;-56
2023/12/10 00:28:22;;;;;;;6.40;5.38;;;15.70;70.90;;;;;;344236;28;957;-57
2023/12/10 00:28:32;;;;;;;6.78;5.45;;;15.70;71.00;;;;;;344151;28;1034;-57
2023/12/10 00:28:43;;;;;;;7.27;5.60;;;15.70;70.90;;;;;;344221;28;987;-57
2023/12/10 00:28:54;;;;;;;6.60;5.50;;;15.70;70.90;;;;;;344212;28;984;-56
2023/12/10 00:29:05;;;;;;;6.30;5.57;;;15.70;71.00;;;;;;344242;28;908;-56
2023/12/10 00:29:15;;;;;;;6.78;5.63;;;15.70;71.00;;;;;;344225;28;897;-56
2023/12/10 00:29:26;;;;;;;7.45;5.75;;;15.70;71.00;;;;;;344115;28;1111;-56
2023/12/10 00:29:37;;;;;;;7.90;5.68;;;15.70;71.00;;;;;;344216;28;1759;-57
2023/12/10 00:29:48;;;;;;;7.57;5.60;;;15.70;71.00;;;;;;344279;28;790;-56
2023/12/10 00:29:58;;;;;;;7.43;5.60;;;15.70;71.00;;;;;;344160;28;1084;-56
2023/12/10 00:30:10;;;;;;;7.38;5.53;;;15.70;71.00;;;;;;344264;28;1125;-56
2023/12/10 00:30:21;;;;;;;7.20;5.20;;;15.70;71.00;;;;;;344158;28;1014;-56
2023/12/10 00:30:31;;;;;;;6.88;5.00;;;15.70;71.00;;;;;;344253;28;976;-56
2023/12/10 00:30:42;;;;;;;6.40;5.05;;;15.70;71.00;;;;;;344221;28;1063;-57
2023/12/10 00:30:53;;;;;;;6.50;5.07;;;15.70;71.00;;;;;;344217;28;893;-57
2023/12/10 00:31:07;;;;;;;6.55;5.05;;;15.70;71.00;;;;;;344160;28;1116;-57
2023/12/10 00:31:18;;;;;;;7.50;5.15;;;15.70;71.00;;;;;;344163;28;1024;-56
2023/12/10 00:31:29;;;;;;;7.65;5.25;;;15.70;71.00;;;;;;344227;28;1095;-56
2023/12/10 00:31:43;;;;;;;8.40;5.50;;;15.70;71.00;;;;;;344310;28;905;-56
2023/12/10 00:31:54;;;;;;;8.32;5.65;;;15.70;71.00;;;;;;344195;28;1198;-56
2023/12/10 00:32:05;;;;;;;7.72;5.63;;;15.70;70.90;;;;;;344160;28;1172;-57
2023/12/10 00:32:16;;;;;;;8.18;5.07;;;15.70;70.90;;;;;;344224;28;1223;-56
2023/12/10 00:32:26;;;;;;;7.78;5.05;;;15.70;70.90;;;;;;344219;28;2188;-56
2023/12/10 00:32:37;;;;;;;7.90;5.40;;;15.70;70.90;;;;;;344187;28;1468;-57
2023/12/10 00:32:48;;;;;;;7.22;5.68;;;15.70;70.90;;;;;;344230;28;1087;-56
2023/12/10 00:32:59;;;;;;;6.65;5.50;;;15.70;70.90;;;;;;344129;28;1092;-56
2023/12/10 00:33:11;;;;;;;6.50;5.32;;;15.70;70.90;;;;;;344225;28;964;-57
2023/12/10 00:33:22;;;;;;;6.53;5.35;;;15.70;70.90;;;;;;344194;28;1131;-56
2023/12/10 00:33:33;;;;;;;6.78;5.40;;;15.70;70.90;;;;;;344178;28;1565;-59
2023/12/10 00:33:44;;;;;;;6.55;5.50;;;15.70;70.90;;;;;;344194;28;972;-57
2023/12/10 00:33:55;;;;;;;6.80;5.68;;;15.70;70.90;;;;;;344136;28;837;-57
2023/12/10 00:34:05;;;;;;;6.22;5.60;;;15.70;70.90;;;;;;344139;28;968;-57
2023/12/10 00:34:16;;;;;;;6.70;5.78;;;15.70;70.90;;;;;;344111;28;988;-56
2023/12/10 00:34:27;;;;;;;7.07;5.93;;;15.70;70.90;;;;;;344148;28;892;-56
2023/12/10 00:34:37;;;;;;;7.72;6.20;;;15.80;70.90;;;;;;344106;28;1031;-57
2023/12/10 00:34:48;;;;;;;6.90;6.20;;;15.70;70.90;;;;;;344041;28;1071;-56
2023/12/10 00:34:59;;;;;;;6.90;6.05;;;15.70;70.90;;;;;;344074;28;1827;-57
2023/12/10 00:35:10;;;;;;;7.80;6.30;;;15.70;70.90;;;;;;344085;28;1267;-56
2023/12/10 00:35:21;;;;;;;8.00;6.33;;;15.70;71.00;;;;;;344149;28;996;-56
2023/12/10 00:35:31;;;;;;;7.15;6.28;;;15.70;71.00;;;;;;344132;28;1020;-57
2023/12/10 00:35:42;;;;;;;7.20;6.00;;;15.70;71.00;;;;;;344054;28;1485;-57
2023/12/10 00:35:53;;;;;;;8.57;6.25;;;15.70;71.00;;;;;;344137;28;861;-57
2023/12/10 00:36:04;;;;;;;8.60;6.30;;;15.70;71.00;;;;;;344225;28;876;-57
2023/12/10 00:36:15;;;;;;;8.30;6.45;;;15.70;71.00;;;;;;344246;28;1154;-56
2023/12/10 00:36:26;;;;;;;7.18;6.32;;;15.70;71.00;;;;;;344272;28;862;-57
2023/12/10 00:36:37;;;;;;;7.40;6.22;;;15.70;71.00;;;;;;344174;28;1043;-57
2023/12/10 00:36:48;;;;;;;7.07;6.18;;;15.70;71.00;;;;;;344135;28;1755;-56
2023/12/10 00:36:59;;;;;;;7.10;5.93;;;15.70;71.00;;;;;;344216;28;858;-55
2023/12/10 00:37:09;;;;;;;6.75;5.75;;;15.70;71.00;;;;;;344221;28;1457;-56
2023/12/10 00:37:20;;;;;;;8.77;6.00;;;15.70;71.00;;;;;;344278;28;823;-56
2023/12/10 00:37:31;;;;;;;8.73;6.25;;;15.70;71.00;;;;;;344129;28;920;-57
2023/12/10 00:37:41;;;;;;;9.63;6.40;;;15.70;71.00;;;;;;344205;28;1088;-56
2023/12/10 00:37:52;;;;;;;7.63;6.38;;;15.70;71.00;;;;;;344152;28;988;-57
2023/12/10 00:38:03;;;;;;;7.33;6.13;;;15.70;71.00;;;;;;344128;28;1024;-57
2023/12/10 00:38:14;;;;;;;6.85;6.13;;;15.70;71.00;;;;;;344156;28;1174;-57
2023/12/10 00:38:24;;;;;;;7.43;6.38;;;15.70;71.00;;;;;;344142;28;1084;-57
2023/12/10 00:38:35;;;;;;;8.60;6.35;;;15.70;71.00;;;;;;344207;28;1008;-56
2023/12/10 00:38:46;;;;;;;8.60;6.22;;;15.70;71.00;;;;;;344208;28;1083;-56
2023/12/10 00:38:59;;;;;;;7.63;5.60;;;15.70;71.00;;;;;;344223;28;1076;-56
2023/12/10 00:39:10;;;;;;;8.88;5.68;;;15.70;71.00;;;;;;344274;28;904;-56
2023/12/10 00:39:20;;;;;;;9.52;5.90;;;15.70;71.00;;;;;;344100;28;1175;-57
2023/12/10 00:39:31;;;;;;;9.75;6.10;;;15.70;71.00;;;;;;344273;28;786;-56
2023/12/10 00:39:42;;;;;;;7.50;5.95;;;15.70;71.00;;;;;;344143;28;1080;-56
2023/12/10 00:39:53;;;;;;;7.38;6.18;;;15.70;71.00;;;;;;344115;28;1079;-56
2023/12/10 00:40:06;;;;;;;8.63;6.43;;;15.70;71.00;;;;;;344246;28;956;-56
2023/12/10 00:40:16;;;;;;;8.93;6.47;;;15.70;71.00;;;;;;344205;28;1194;-56
2023/12/10 00:40:27;;;;;;;8.55;6.38;;;15.70;71.00;;;;;;344160;28;929;-56
2023/12/10 00:40:38;;;;;;;7.18;6.15;;;15.70;71.00;;;;;;344211;28;1015;-56
2023/12/10 00:40:49;;;;;;;6.90;6.05;;;15.70;71.00;;;;;;344215;28;869;-56
2023/12/10 00:41:00;;;;;;;6.75;5.85;;;15.70;71.00;;;;;;344073;28;1963;-56
2023/12/10 00:41:12;;;;;;;8.90;5.93;;;15.70;71.00;;;;;;344210;28;909;-57
2023/12/10 00:41:22;;;;;;;10.05;6.18;;;15.70;71.00;;;;;;344239;28;916;-56
2023/12/10 00:41:33;;;;;;;9.07;6.00;;;15.70;71.00;;;;;;344084;28;1148;-56
2023/12/10 00:41:45;;;;;;;7.43;5.80;;;15.70;71.00;;;;;;344224;28;806;-57
2023/12/10 00:41:56;;;;;;;6.45;5.43;;;15.70;70.90;;;;;;344253;28;946;-58
2023/12/10 00:42:07;;;;;;;7.35;5.43;;;15.70;70.90;;;;;;344154;28;1092;-56
2023/12/10 00:42:18;;;;;;;7.40;5.60;;;15.70;70.90;;;;;;344130;28;1591;-58
2023/12/10 00:42:29;;;;;;;7.04;5.70;;;15.70;70.90;;;;;;344236;28;1036;-56
2023/12/10 00:42:41;;;;;;;6.60;5.83;;;15.70;70.90;;;;;;344113;28;1040;-58
2023/12/10 00:42:52;;;;;;;6.82;5.85;;;15.70;70.90;;;;;;344185;28;1032;-57
2023/12/10 00:43:03;;;;;;;7.22;6.00;;;15.70;70.90;;;;;;344242;28;881;-56
2023/12/10 00:43:16;;;;;;;6.77;5.83;;;15.70;70.90;;;;;;344166;28;1020;-56
2023/12/10 00:43:27;;;;;;;6.57;5.82;;;15.70;70.90;;;;;;344254;28;1094;-56
2023/12/10 00:43:42;;;;;;;7.87;6.30;;;15.70;70.90;;;;;;344235;28;1012;-56
2023/12/10 00:43:52;;;;;;;8.52;6.18;;;15.70;70.90;;;;;;344100;28;1072;-56
2023/12/10 00:44:03;;;;;;;7.43;5.80;;;15.70;70.90;;;;;;344177;28;972;-57
2023/12/10 00:44:14;;;;;;;7.63;5.80;;;15.70;70.90;;;;;;344119;28;1027;-56
2023/12/10 00:44:25;;;;;;;8.80;5.85;;;15.70;70.90;;;;;;344224;28;805;-56
2023/12/10 00:44:36;;;;;;;8.32;5.75;;;15.70;70.90;;;;;;344195;28;963;-57
2023/12/10 00:44:46;;;;;;;8.07;5.70;;;15.70;70.90;;;;;;344175;28;1031;-56
2023/12/10 00:44:57;;;;;;;7.20;5.60;;;15.70;70.90;;;;;;344064;28;1075;-57
2023/12/10 00:45:09;;;;;;;7.70;5.63;;;15.70;70.90;;;;;;344202;28;1940;-56
2023/12/10 00:45:19;;;;;;;7.10;5.72;;;15.70;70.90;;;;;;344134;28;1214;-58
2023/12/10 00:45:30;;;;;;;7.70;6.00;;;15.70;70.90;;;;;;344233;28;988;-56
2023/12/10 00:45:41;;;;;;;8.15;5.97;;;15.70;70.90;;;;;;344119;28;1018;-57
2023/12/10 00:45:52;;;;;;;7.90;5.95;;;15.70;70.90;;;;;;344197;28;981;-56
2023/12/10 00:46:04;;;;;;;7.22;5.45;;;15.70;71.00;;;;;;344119;28;930;-56
2023/12/10 00:46:16;;;;;;;7.40;5.55;;;15.70;71.00;;;;;;344210;28;1370;-56
2023/12/10 00:46:26;;;;;;;8.05;5.50;;;15.70;71.00;;;;;;344143;28;1023;-55
2023/12/10 00:46:37;;;;;;;8.10;6.05;;;15.70;71.00;;;;;;344238;28;801;-57
2023/12/10 00:46:48;;;;;;;8.83;7.17;;;15.60;71.00;;;;;;344100;28;936;-56
2023/12/10 00:46:59;;;;;;;13.40;11.95;;;15.70;71.00;;;;;;344142;28;1171;-56
2023/12/10 00:47:09;;;;;;;17.48;15.30;;;15.70;71.00;;;;;;344092;28;1331;-56
2023/12/10 00:47:20;;;;;;;18.25;16.30;;;15.70;71.00;;;;;;344149;28;1500;-56
2023/12/10 00:47:31;;;;;;;13.90;12.47;;;15.70;70.90;;;;;;344131;28;949;-56
2023/12/10 00:47:42;;;;;;;10.75;9.65;;;15.60;70.90;;;;;;344224;28;988;-56
2023/12/10 00:47:52;;;;;;;7.78;7.00;;;15.70;70.90;;;;;;344058;28;1071;-57
2023/12/10 00:48:03;;;;;;;6.20;5.60;;;15.60;70.90;;;;;;344156;28;1160;-57
2023/12/10 00:48:14;;;;;;;5.72;5.13;;;15.60;70.90;;;;;;344099;28;1151;-56
2023/12/10 00:48:25;;;;;;;5.63;5.03;;;15.70;70.90;;;;;;344213;28;1031;-56
2023/12/10 00:48:40;;;;;;;6.22;4.88;;;15.60;70.90;;;;;;344125;28;1063;-56
2023/12/10 00:48:51;;;;;;;5.95;4.53;;;15.60;70.90;;;;;;344185;28;963;-57
2023/12/10 00:49:01;;;;;;;5.93;4.50;;;15.60;70.90;;;;;;344116;28;1015;-58
2023/12/10 00:49:12;;;;;;;5.80;4.63;;;15.60;70.90;;;;;;344223;28;838;-58
2023/12/10 00:49:23;;;;;;;6.70;4.70;;;15.70;71.00;;;;;;344190;28;1115;-57
2023/12/10 00:49:34;;;;;;;6.70;4.82;;;15.60;71.00;;;;;;344124;28;987;-57
2023/12/10 00:49:44;;;;;;;6.77;4.90;;;15.60;71.00;;;;;;344178;28;1080;-59
2023/12/10 00:49:55;;;;;;;6.80;4.90;;;15.60;71.00;;;;;;344136;28;1088;-56
2023/12/10 00:50:06;;;;;;;6.65;4.95;;;15.60;71.00;;;;;;344156;28;985;-57
2023/12/10 00:50:18;;;;;;;6.28;4.88;;;15.60;71.00;;;;;;344168;28;1040;-58
2023/12/10 00:50:28;;;;;;;6.07;5.00;;;15.60;71.00;;;;;;344198;28;1178;-57
2023/12/10 00:50:39;;;;;;;6.37;4.83;;;15.60;71.00;;;;;;344225;28;1020;-57
2023/12/10 00:50:50;;;;;;;6.47;5.00;;;15.60;71.10;;;;;;344025;28;1059;-56
2023/12/10 00:51:01;;;;;;;6.25;5.00;;;15.60;71.10;;;;;;344196;28;1025;-56
2023/12/10 00:51:21;;;;;;;5.80;5.00;;;15.60;71.10;;;;;;344207;28;1776;-56
2023/12/10 00:51:32;;;;;;;5.50;4.88;;;15.60;71.10;;;;;;344112;28;1058;-57
2023/12/10 00:51:43;;;;;;;5.30;4.80;;;15.60;71.10;;;;;;344162;28;1468;-56
2023/12/10 00:51:54;;;;;;;5.63;4.90;;;15.60;71.10;;;;;;344154;28;988;-57
2023/12/10 00:52:05;;;;;;;5.78;5.07;;;15.60;71.10;;;;;;344103;28;1072;-56
2023/12/10 00:52:16;;;;;;;5.82;5.07;;;15.60;71.10;;;;;;344227;28;1078;-56
2023/12/10 00:52:26;;;;;;;6.05;5.15;;;15.60;71.10;;;;;;344245;28;1016;-56
2023/12/10 00:52:37;;;;;;;6.65;5.00;;;15.60;71.10;;;;;;344161;28;1117;-57
2023/12/10 00:52:48;;;;;;;6.63;5.20;;;15.60;71.10;;;;;;344144;28;1076;-56
2023/12/10 00:53:04;;;;;;;6.40;4.85;;;15.60;71.10;;;;;;344162;28;984;-56
2023/12/10 00:53:15;;;;;;;6.80;4.78;;;15.60;71.10;;;;;;344169;28;975;-57
2023/12/10 00:53:25;;;;;;;7.47;5.00;;;15.60;71.20;;;;;;344246;28;888;-56
2023/12/10 00:53:36;;;;;;;7.63;5.30;;;15.60;71.10;;;;;;344116;28;2579;-57
2023/12/10 00:53:48;;;;;;;6.82;5.38;;;15.60;71.20;;;;;;344125;28;960;-57
2023/12/10 00:53:59;;;;;;;5.95;5.00;;;15.60;71.10;;;;;;344212;28;877;-56
2023/12/10 00:54:09;;;;;;;5.63;4.73;;;15.50;71.10;;;;;;344197;28;1772;-56
2023/12/10 00:54:20;;;;;;;6.00;4.90;;;15.60;71.20;;;;;;344224;28;1079;-56
2023/12/10 00:54:32;;;;;;;6.15;5.13;;;15.50;71.20;;;;;;344184;28;830;-57
2023/12/10 00:54:43;;;;;;;6.05;5.38;;;15.60;71.20;;;;;;344123;28;1102;-56
2023/12/10 00:54:54;;;;;;;6.23;5.13;;;15.60;71.30;;;;;;344172;28;1042;-56
2023/12/10 00:55:05;;;;;;;6.22;5.10;;;15.60;71.30;;;;;;344148;28;1174;-56
2023/12/10 00:55:16;;;;;;;7.25;4.88;;;15.50;71.30;;;;;;344212;28;1035;-56
2023/12/10 00:55:26;;;;;;;7.47;5.00;;;15.60;71.30;;;;;;344216;28;1042;-57
2023/12/10 00:55:37;;;;;;;7.50;5.03;;;15.60;71.30;;;;;;344138;28;892;-57
2023/12/10 00:55:48;;;;;;;6.33;5.20;;;15.60;71.30;;;;;;344184;28;1798;-57
2023/12/10 00:55:59;;;;;;;6.30;5.25;;;15.60;71.30;;;;;;344242;28;1020;-56
2023/12/10 00:56:09;;;;;;;7.55;5.60;;;15.60;71.30;;;;;;344276;28;937;-56
2023/12/10 00:56:20;;;;;;;7.03;5.50;;;15.50;71.30;;;;;;344189;28;912;-56
2023/12/10 00:56:31;;;;;;;6.35;5.28;;;15.60;71.30;;;;;;344096;28;1282;-56
2023/12/10 00:56:42;;;;;;;5.70;5.15;;;15.50;71.40;;;;;;344187;28;1018;-56
2023/12/10 00:56:53;;;;;;;5.97;5.38;;;15.60;71.40;;;;;;344183;28;1859;-56
2023/12/10 00:57:04;;;;;;;6.70;5.43;;;15.50;71.40;;;;;;344166;28;1024;-56
2023/12/10 00:57:15;;;;;;;7.03;5.43;;;15.50;71.40;;;;;;344103;28;1112;-56
2023/12/10 00:57:25;;;;;;;7.33;5.57;;;15.50;71.40;;;;;;344081;28;1163;-56
2023/12/10 00:57:36;;;;;;;7.03;5.40;;;15.50;71.40;;;;;;344213;28;996;-56
2023/12/10 00:57:47;;;;;;;6.57;5.38;;;15.60;71.40;;;;;;344161;28;1048;-56
2023/12/10 00:57:58;;;;;;;6.97;5.40;;;15.50;71.40;;;;;;344172;28;1755;-57
2023/12/10 00:58:09;;;;;;;7.43;5.65;;;15.60;71.40;;;;;;344163;28;1071;-56
2023/12/10 00:58:20;;;;;;;8.05;5.72;;;15.50;71.30;;;;;;344132;28;1149;-57
2023/12/10 00:58:30;;;;;;;7.57;5.55;;;15.50;71.30;;;;;;344189;28;1195;-56
2023/12/10 00:58:41;;;;;;;6.67;5.40;;;15.50;71.30;;;;;;344185;28;1060;-56
2023/12/10 00:58:52;;;;;;;6.18;5.43;;;15.50;71.30;;;;;;344139;28;1004;-56
2023/12/10 00:59:03;;;;;;;6.03;5.43;;;15.50;71.30;;;;;;344224;28;996;-56